Time;durP1;ratioP1;P1;durP2;ratioP2;P2;SDS_P1;SDS_P2;PMS_P1;PMS_P2;Temp;Humidity;BMP_temperature;BMP_pressure;BME280_temperature;BME280_humidity;BME280_pressure;Samples;Min_cycle;Max_cycle;Signal;HPM_P1;HPM_P2
2023/01/13 00:01:21;;;;;;;3.67;0.63;;;;;;;9.23;100.00;100224.47;5030590;28;20038;-76
2023/01/13 00:03:47;;;;;;;2.22;0.47;;;;;;;9.18;100.00;100210.41;5024052;28;20107;-76
2023/01/13 00:06:18;;;;;;;2.25;0.70;;;;;;;9.26;100.00;100210.41;5014581;28;20060;-76
2023/01/13 00:08:47;;;;;;;4.10;0.60;;;;;;;9.19;100.00;100204.25;5031218;28;20034;-76
2023/01/13 00:11:13;;;;;;;1.77;0.60;;;;;;;9.16;100.00;100202.78;5029382;28;20046;-76
2023/01/13 00:13:38;;;;;;;5.05;0.60;;;;;;;9.06;100.00;100207.28;5030010;28;20039;-75
2023/01/13 00:16:06;;;;;;;2.38;0.47;;;;;;;9.10;100.00;100206.84;5047583;28;20426;-76
2023/01/13 00:18:33;;;;;;;7.72;0.77;;;;;;;9.00;100.00;100193.22;5047575;28;20039;-76
2023/01/13 00:21:06;;;;;;;1.88;0.47;;;;;;;8.94;100.00;100183.53;5032934;28;20446;-76
2023/01/13 00:23:33;;;;;;;2.58;0.60;;;;;;;8.99;100.00;100201.97;5062983;28;20037;-76
2023/01/13 00:26:02;;;;;;;4.90;0.70;;;;;;;9.12;100.00;100204.91;5063911;28;20051;-76
2023/01/13 00:28:28;;;;;;;5.25;0.80;;;;;;;9.08;100.00;100211.38;5034865;28;20087;-76
2023/01/13 00:30:57;;;;;;;4.88;1.00;;;;;;;8.98;100.00;100205.50;5047321;28;20041;-76
2023/01/13 00:33:22;;;;;;;6.57;0.93;;;;;;;9.05;100.00;100203.13;5029305;28;20037;-76
2023/01/13 00:35:58;;;;;;;4.07;0.65;;;;;;;9.09;100.00;100212.16;5035260;28;20095;-77
2023/01/13 00:38:24;;;;;;;3.13;1.30;;;;;;;9.03;100.00;100210.22;5034911;28;20123;-76
2023/01/13 00:41:04;;;;;;;3.45;0.60;;;;;;;9.03;100.00;100200.69;5026814;28;20041;-76
2023/01/13 00:43:31;;;;;;;3.60;0.95;;;;;;;9.01;100.00;100194.06;5019911;28;20104;-76
2023/01/13 00:45:57;;;;;;;7.57;1.40;;;;;;;9.03;100.00;100205.84;5033169;28;20042;-77
2023/01/13 00:48:23;;;;;;;4.93;0.80;;;;;;;9.02;100.00;100201.63;5031699;28;20056;-76
2023/01/13 00:50:57;;;;;;;6.97;1.00;;;;;;;9.01;100.00;100212.97;5033878;28;20396;-77
2023/01/13 00:53:23;;;;;;;6.13;0.80;;;;;;;8.93;100.00;100215.56;5015677;28;20029;-77
2023/01/13 00:55:49;;;;;;;7.05;1.70;;;;;;;8.90;100.00;100213.28;5030716;28;20041;-77
2023/01/13 00:58:14;;;;;;;8.43;1.08;;;;;;;9.02;100.00;100206.00;5064035;28;20037;-76
2023/01/13 01:00:41;;;;;;;8.77;1.80;;;;;;;9.07;100.00;100201.97;5018585;28;20056;-76
2023/01/13 01:03:11;;;;;;;5.72;1.00;;;;;;;8.94;100.00;100180.94;5033418;28;20111;-76
2023/01/13 01:05:38;;;;;;;11.52;1.05;;;;;;;8.92;100.00;100172.53;5050913;28;20518;-76
2023/01/13 01:08:04;;;;;;;10.93;1.83;;;;;;;8.91;100.00;100170.91;5025331;28;20033;-77
2023/01/13 01:10:29;;;;;;;11.82;1.25;;;;;;;8.87;100.00;100185.13;5011816;28;20045;-76
2023/01/13 01:12:55;;;;;;;6.50;1.13;;;;;;;8.92;100.00;100190.66;5029805;28;20071;-77
2023/01/13 01:15:20;;;;;;;11.73;2.20;;;;;;;8.80;100.00;100197.06;5045865;28;20048;-77
2023/01/13 01:17:46;;;;;;;7.78;1.15;;;;;;;8.76;100.00;100200.00;5039140;28;20483;-77
2023/01/13 01:20:11;;;;;;;11.38;1.38;;;;;;;8.81;100.00;100214.22;5037202;28;20030;-77
2023/01/13 01:22:37;;;;;;;11.50;1.10;;;;;;;8.73;100.00;100186.56;5048016;28;20468;-77
2023/01/13 01:25:03;;;;;;;8.60;0.95;;;;;;;8.82;100.00;100182.25;5044999;28;20075;-76
2023/01/13 01:27:28;;;;;;;4.55;0.80;;;;;;;8.80;100.00;100184.97;5064768;28;20144;-77
2023/01/13 01:29:54;;;;;;;4.28;0.73;;;;;;;8.80;100.00;100182.41;5032085;28;20041;-77
2023/01/13 01:32:19;;;;;;;6.22;0.93;;;;;;;8.74;100.00;100189.00;5056086;28;20026;-77
2023/01/13 01:34:45;;;;;;;10.50;1.40;;;;;;;8.70;100.00;100190.31;5022843;28;20056;-76
2023/01/13 01:37:10;;;;;;;8.48;1.30;;;;;;;8.74;100.00;100194.19;5032959;28;20063;-77
2023/01/13 01:39:36;;;;;;;7.88;1.10;;;;;;;8.64;100.00;100195.28;5026572;28;20634;-77
2023/01/13 01:44:57;;;;;;;13.48;1.42;;;;;;;8.66;98.80;100220.00;5027346;28;20095;-77
2023/01/13 01:47:24;;;;;;;11.13;1.67;;;;;;;8.60;99.21;100225.78;5026256;28;20045;-77
2023/01/13 01:49:50;;;;;;;11.65;1.75;;;;;;;8.43;99.50;100232.69;5026716;28;20041;-76
2023/01/13 01:52:20;;;;;;;12.63;1.90;;;;;;;8.35;99.46;100225.69;5029087;28;20032;-77
2023/01/13 01:54:53;;;;;;;10.88;1.48;;;;;;;8.37;98.71;100226.34;5025162;28;20434;-77
2023/01/13 01:57:25;;;;;;;8.10;0.93;;;;;;;8.33;99.13;100216.47;5025884;28;20025;-77
2023/01/13 01:59:51;;;;;;;12.30;1.98;;;;;;;8.29;98.84;100223.72;5043404;28;20087;-77
2023/01/13 02:02:17;;;;;;;11.35;1.50;;;;;;;8.25;99.21;100232.75;5056859;28;20289;-77
2023/01/13 02:04:49;;;;;;;10.95;1.45;;;;;;;8.43;98.26;100227.50;5022805;28;20234;-77
2023/01/13 02:07:25;;;;;;;13.48;0.93;;;;;;;8.31;98.22;100231.31;5043429;28;20102;-77
2023/01/13 02:09:51;;;;;;;8.00;1.10;;;;;;;8.18;98.87;100226.56;5030213;28;20051;-77
2023/01/13 02:12:30;;;;;;;10.57;1.00;;;;;;;8.17;98.72;100212.84;5011995;28;20071;-77
2023/01/13 02:15:05;;;;;;;7.80;1.23;;;;;;;8.11;99.40;100223.78;5041461;28;20447;-77
2023/01/13 02:17:49;;;;;;;9.73;0.90;;;;;;;8.17;97.83;100225.78;5032435;28;20075;-77
2023/01/13 02:20:20;;;;;;;5.50;0.77;;;;;;;8.02;97.15;100227.28;5028269;28;20052;-77
2023/01/13 02:22:54;;;;;;;10.43;1.73;;;;;;;8.01;94.68;100230.84;5030305;28;20025;-77
2023/01/13 02:25:26;;;;;;;8.45;0.77;;;;;;;7.98;93.13;100237.09;5030963;28;20036;-77
2023/01/13 02:28:27;;;;;;;6.07;1.00;;;;;;;7.90;92.03;100215.63;5047866;28;20053;-77
2023/01/13 02:33:48;;;;;;;5.72;0.85;;;;;;;8.01;90.62;100227.47;5031587;28;20056;-77
2023/01/13 02:36:50;;;;;;;9.60;0.93;;;;;;;7.94;90.68;100217.72;5029793;28;20566;-77
2023/01/13 02:39:23;;;;;;;6.65;1.15;;;;;;;7.83;91.54;100217.97;5035998;28;20491;-76
2023/01/13 02:44:50;;;;;;;8.88;1.48;;;;;;;7.71;90.73;100220.00;5025701;28;20034;-77
2023/01/13 02:47:20;;;;;;;11.15;2.05;;;;;;;7.63;90.66;100216.56;5057413;28;20025;-77
2023/01/13 02:49:54;;;;;;;10.65;1.15;;;;;;;7.62;91.32;100217.53;5039370;28;20046;-76
2023/01/13 02:52:44;;;;;;;22.20;2.22;;;;;;;7.48;91.43;100211.13;5024299;28;20034;-76
2023/01/13 02:55:20;;;;;;;14.93;1.40;;;;;;;7.50;91.03;100212.63;5026113;28;20037;-77
2023/01/13 02:57:48;;;;;;;10.75;1.20;;;;;;;7.44;91.19;100213.22;5055762;28;20060;-76
2023/01/13 03:00:15;;;;;;;9.10;1.48;;;;;;;7.45;90.64;100209.66;5023956;28;20038;-77
2023/01/13 03:02:41;;;;;;;12.70;1.30;;;;;;;7.37;90.88;100207.84;5028346;28;20562;-77
2023/01/13 03:05:06;;;;;;;13.48;1.30;;;;;;;7.30;90.54;100211.97;5059374;28;20048;-77
2023/01/13 03:07:35;;;;;;;8.85;1.38;;;;;;;7.34;90.58;100215.06;5037357;28;20030;-77
2023/01/13 03:10:21;;;;;;;13.75;1.63;;;;;;;7.19;91.41;100219.94;5023245;28;20127;-77
2023/01/13 03:13:01;;;;;;;13.75;2.33;;;;;;;7.24;91.33;100216.91;5025456;28;20045;-77
2023/01/13 03:15:42;;;;;;;8.40;1.00;;;;;;;7.11;92.02;100207.78;5027280;28;20037;-76
2023/01/13 03:18:13;;;;;;;7.40;0.85;;;;;;;7.04;92.29;100211.09;5041633;28;20041;-77
2023/01/13 03:20:52;;;;;;;18.45;1.50;;;;;;;6.95;92.88;100198.13;5020909;28;20042;-76
2023/01/13 03:23:28;;;;;;;10.05;0.90;;;;;;;7.06;93.12;100201.44;5039102;28;20814;-76
2023/01/13 03:26:09;;;;;;;8.05;0.90;;;;;;;7.15;92.34;100203.13;5026190;28;20052;-76
2023/01/13 03:28:47;;;;;;;13.02;1.88;;;;;;;7.05;92.67;100203.22;5030540;28;20029;-76
2023/01/13 03:31:17;;;;;;;5.57;0.82;;;;;;;7.07;93.20;100209.03;5047207;28;20090;-76
2023/01/13 03:33:49;;;;;;;4.82;0.98;;;;;;;6.97;93.69;100208.31;5015076;28;20037;-77
2023/01/13 03:36:16;;;;;;;8.93;1.05;;;;;;;6.96;93.51;100192.00;5043490;28;20111;-77
2023/01/13 03:38:56;;;;;;;10.77;0.93;;;;;;;7.02;94.15;100200.91;5012295;28;20024;-75
2023/01/13 03:41:29;;;;;;;13.48;2.00;;;;;;;7.02;93.95;100196.56;5046377;28;20030;-75
2023/01/13 03:44:22;;;;;;;19.60;2.13;;;;;;;6.97;94.05;100191.06;5040496;28;20061;-77
2023/01/13 03:47:02;;;;;;;16.20;3.42;;;;;;;6.89;94.42;100192.75;5037364;28;20096;-77
2023/01/13 03:49:47;;;;;;;50.38;10.82;;;;;;;6.99;94.37;100199.47;5026074;28;20095;-76
2023/01/13 03:52:20;;;;;;;10.55;2.38;;;;;;;6.96;94.25;100197.16;5027588;28;20120;-77
2023/01/13 03:54:53;;;;;;;22.85;6.65;;;;;;;7.00;94.22;100200.25;5056172;28;20045;-76
2023/01/13 03:57:23;;;;;;;21.13;5.00;;;;;;;7.07;93.84;100206.47;5061414;28;20510;-77
2023/01/13 03:59:53;;;;;;;26.80;5.65;;;;;;;6.99;94.03;100208.97;5043596;28;20033;-77
2023/01/13 04:02:24;;;;;;;27.17;4.40;;;;;;;7.00;94.25;100197.69;5030360;28;20026;-76
2023/01/13 04:05:00;;;;;;;23.80;3.88;;;;;;;6.97;93.82;100205.72;5043793;28;20154;-75
2023/01/13 04:07:40;;;;;;;17.58;4.15;;;;;;;6.95;93.72;100194.72;5047220;28;20033;-76
2023/01/13 04:10:09;;;;;;;16.73;4.25;;;;;;;6.98;94.25;100204.75;5028936;28;20045;-76
2023/01/13 04:12:59;;;;;;;22.38;4.38;;;;;;;6.99;94.48;100196.88;5014791;28;20029;-76
2023/01/13 04:15:27;;;;;;;21.65;3.95;;;;;;;6.96;94.71;100196.34;5045732;28;20034;-76
2023/01/13 04:18:00;;;;;;;20.65;2.47;;;;;;;6.99;94.74;100196.88;5043715;28;20026;-76
2023/01/13 04:20:25;;;;;;;19.20;2.70;;;;;;;7.07;94.44;100197.91;5047771;28;20041;-76
2023/01/13 04:22:51;;;;;;;14.10;2.95;;;;;;;7.00;94.46;100200.25;5028118;28;20546;-76
2023/01/13 04:25:16;;;;;;;16.15;3.00;;;;;;;7.05;94.36;100195.47;5028609;28;20032;-76
2023/01/13 04:27:42;;;;;;;12.23;2.17;;;;;;;7.00;94.50;100202.84;5029452;28;20033;-75
2023/01/13 04:30:08;;;;;;;18.13;2.88;;;;;;;7.07;94.52;100200.50;5032981;28;20032;-76
2023/01/13 04:32:33;;;;;;;15.73;1.77;;;;;;;7.06;94.13;100194.50;5060498;28;20034;-76
2023/01/13 04:34:59;;;;;;;16.60;2.25;;;;;;;7.05;93.79;100200.63;5027188;28;20045;-76
2023/01/13 04:37:24;;;;;;;11.30;1.90;;;;;;;7.14;94.15;100202.34;5044198;28;20025;-77
2023/01/13 04:39:50;;;;;;;18.73;3.15;;;;;;;7.17;94.33;100199.44;5024243;28;20033;-76
2023/01/13 04:42:15;;;;;;;14.43;1.95;;;;;;;7.10;94.33;100207.91;5008976;28;20403;-76
2023/01/13 04:44:41;;;;;;;24.55;2.88;;;;;;;7.11;95.13;100201.81;5030855;28;20040;-76
2023/01/13 04:47:06;;;;;;;19.02;2.90;;;;;;;7.28;94.68;100219.03;5036974;28;20021;-76
2023/01/13 04:49:32;;;;;;;15.85;2.03;;;;;;;7.30;94.31;100218.91;5043837;28;20036;-76
2023/01/13 04:51:57;;;;;;;19.10;3.10;;;;;;;7.26;94.79;100189.22;5028873;28;20129;-77
2023/01/13 04:54:23;;;;;;;14.93;1.52;;;;;;;7.12;94.29;100175.06;5061910;28;20041;-76
2023/01/13 04:56:48;;;;;;;16.30;1.70;;;;;;;7.09;94.61;100185.69;5043088;28;20286;-76
2023/01/13 04:59:14;;;;;;;15.98;2.20;;;;;;;7.15;94.66;100192.81;5042342;28;20037;-76
2023/01/13 05:01:39;;;;;;;16.13;1.95;;;;;;;7.10;95.13;100195.03;5010197;28;20700;-77
2023/01/13 05:04:06;;;;;;;9.98;1.40;;;;;;;7.08;95.66;100187.44;5027846;28;20438;-76
2023/01/13 05:06:32;;;;;;;10.50;1.23;;;;;;;7.08;96.19;100187.44;5027973;28;20130;-76
2023/01/13 05:08:58;;;;;;;12.13;1.55;;;;;;;6.92;97.21;100187.31;5029984;28;20030;-76
2023/01/13 05:17:00;;;;;;;26.30;3.25;;;;;;;6.78;98.97;100194.59;5029024;28;20060;-77
2023/01/13 05:19:34;;;;;;;18.33;1.85;;;;;;;6.78;99.10;100201.50;5048212;28;20033;-77
2023/01/13 05:27:29;;;;;;;18.50;2.65;;;;;;;6.72;98.80;100205.47;5027491;28;20041;-76
2023/01/13 05:29:55;;;;;;;18.58;2.33;;;;;;;6.76;98.47;100208.56;5041367;28;20096;-76
2023/01/13 05:32:21;;;;;;;16.35;2.67;;;;;;;6.86;97.47;100205.94;5057939;28;20029;-76
2023/01/13 05:34:47;;;;;;;17.35;2.22;;;;;;;6.87;96.79;100203.19;5041927;28;20113;-76
2023/01/13 05:37:13;;;;;;;14.60;2.28;;;;;;;6.72;96.82;100205.47;5029258;28;20543;-76
2023/01/13 05:45:08;;;;;;;16.92;2.08;;;;;;;6.67;96.83;100217.97;5024784;28;20033;-75
2023/01/13 05:47:34;;;;;;;18.23;2.47;;;;;;;6.75;96.16;100212.09;5027519;28;20065;-74
2023/01/13 05:49:59;;;;;;;22.10;2.50;;;;;;;6.68;96.46;100222.16;5042643;28;20034;-75
2023/01/13 05:52:25;;;;;;;17.35;1.90;;;;;;;6.75;96.19;100222.41;5029035;28;20561;-74
2023/01/13 05:54:50;;;;;;;16.77;2.20;;;;;;;6.70;96.42;100224.59;5021037;28;20067;-75
2023/01/13 05:57:16;;;;;;;13.02;2.00;;;;;;;6.70;96.51;100230.56;5037337;28;20054;-75
2023/01/13 05:59:41;;;;;;;15.65;1.75;;;;;;;6.66;96.91;100211.19;5040297;28;21539;-75
2023/01/13 06:02:07;;;;;;;19.35;1.92;;;;;;;6.71;95.99;100227.03;5028016;28;20021;-75
2023/01/13 06:04:33;;;;;;;26.38;1.95;;;;;;;6.81;95.50;100230.34;5041575;28;20033;-75
2023/01/13 06:06:58;;;;;;;11.85;1.30;;;;;;;6.78;95.25;100230.66;5040793;28;20036;-74
2023/01/13 06:09:24;;;;;;;14.50;2.10;;;;;;;6.93;94.37;100235.31;5022664;28;20537;-74
2023/01/13 06:11:49;;;;;;;16.83;2.45;;;;;;;6.91;93.86;100229.50;5025082;28;20025;-74
2023/01/13 06:14:15;;;;;;;15.23;2.85;;;;;;;6.85;94.33;100243.78;5024102;28;20629;-73
2023/01/13 06:16:40;;;;;;;10.82;1.95;;;;;;;6.82;93.96;100237.16;5010261;28;20037;-75
2023/01/13 06:19:11;;;;;;;18.08;2.15;;;;;;;6.78;93.82;100240.97;5043881;28;20487;-74
2023/01/13 06:21:37;;;;;;;21.17;1.98;;;;;;;6.78;93.91;100237.56;5023242;28;20033;-74
2023/01/13 06:24:04;;;;;;;15.43;1.63;;;;;;;6.81;92.88;100230.34;5025178;28;20079;-75
2023/01/13 06:26:35;;;;;;;12.63;1.60;;;;;;;6.78;92.90;100228.09;5020035;28;20099;-75
2023/01/13 06:29:00;;;;;;;19.27;2.80;;;;;;;6.72;93.17;100238.16;5040906;28;20399;-74
2023/01/13 06:31:27;;;;;;;8.15;1.67;;;;;;;6.85;92.93;100232.66;5020711;28;20045;-75
2023/01/13 06:34:01;;;;;;;15.20;2.13;;;;;;;6.84;93.14;100234.44;5023778;28;20068;-75
2023/01/13 06:36:36;;;;;;;11.63;1.58;;;;;;;6.75;93.48;100227.56;5039606;28;20044;-75
2023/01/13 06:39:03;;;;;;;17.88;1.55;;;;;;;6.71;93.90;100237.34;5025230;28;20116;-75
2023/01/13 06:44:18;;;;;;;5.15;1.35;;;;;;;6.70;94.78;100245.22;5029128;28;20417;-75
2023/01/13 06:46:43;;;;;;;9.23;1.63;;;;;;;6.64;94.83;100249.19;5038349;28;20041;-74
2023/01/13 06:49:09;;;;;;;11.93;1.83;;;;;;;6.73;94.71;100248.31;5035396;28;20486;-75
2023/01/13 06:51:34;;;;;;;19.75;1.60;;;;;;;6.63;94.72;100248.38;5039698;28;20034;-74
2023/01/13 06:54:00;;;;;;;10.88;1.25;;;;;;;6.57;95.56;100251.53;5041755;28;20040;-75
2023/01/13 06:56:25;;;;;;;7.10;1.60;;;;;;;6.75;94.55;100255.91;5019738;28;20038;-75
2023/01/13 06:58:51;;;;;;;9.77;1.70;;;;;;;6.67;94.38;100256.63;5029008;28;20029;-74
2023/01/13 07:01:16;;;;;;;11.52;1.83;;;;;;;6.76;94.23;100265.25;5025190;28;20029;-75
2023/01/13 07:03:42;;;;;;;20.58;1.70;;;;;;;6.68;94.31;100253.09;5033664;28;20033;-74
2023/01/13 07:06:07;;;;;;;17.55;1.83;;;;;;;6.72;93.93;100264.72;5011564;28;20465;-75
2023/01/13 07:08:33;;;;;;;10.13;1.30;;;;;;;6.67;93.56;100260.94;5040469;28;20030;-75
2023/01/13 07:11:00;;;;;;;8.80;1.45;;;;;;;6.70;93.08;100256.31;5023687;28;20046;-74
2023/01/13 07:16:10;;;;;;;11.77;1.65;;;;;;;6.66;92.21;100262.72;5012038;28;20037;-74
2023/01/13 07:18:36;;;;;;;11.38;1.85;;;;;;;6.75;92.20;100271.38;5011573;28;20030;-75
2023/01/13 07:21:11;;;;;;;9.90;1.45;;;;;;;6.64;91.81;100282.69;5032122;28;20057;-74
2023/01/13 07:23:40;;;;;;;14.20;2.60;;;;;;;6.66;91.77;100278.19;5024778;28;20041;-75
2023/01/13 07:26:07;;;;;;;13.05;1.98;;;;;;;6.62;91.86;100279.44;5021716;28;20064;-75
2023/01/13 07:28:33;;;;;;;13.95;1.35;;;;;;;6.66;91.70;100280.75;5020926;28;20487;-74
2023/01/13 07:31:00;;;;;;;10.43;1.55;;;;;;;6.58;91.72;100284.06;5018318;28;20056;-73
2023/01/13 07:33:25;;;;;;;18.25;1.50;;;;;;;6.63;91.45;100287.03;5000309;28;20033;-74
2023/01/13 07:35:57;;;;;;;9.75;2.10;;;;;;;6.59;92.12;100283.13;5018565;28;20065;-74
2023/01/13 07:38:22;;;;;;;13.95;2.65;;;;;;;6.61;92.41;100293.25;5000385;28;20466;-75
2023/01/13 07:40:48;;;;;;;21.35;3.85;;;;;;;6.60;92.51;100289.88;5020207;28;20045;-75
2023/01/13 07:43:31;;;;;;;26.17;4.00;;;;;;;6.67;92.52;100286.72;5017437;28;20472;-75
2023/01/13 07:46:03;;;;;;;29.17;4.80;;;;;;;6.59;92.51;100302.91;5000448;28;20436;-75
2023/01/13 07:48:30;;;;;;;22.08;4.40;;;;;;;6.62;92.02;100300.84;4988389;28;20340;-75
2023/01/13 07:50:55;;;;;;;20.15;4.15;;;;;;;6.56;92.66;100298.84;5013457;28;20454;-75
2023/01/13 07:53:24;;;;;;;15.43;2.20;;;;;;;6.53;92.41;100299.13;5038768;28;20029;-74
2023/01/13 07:55:54;;;;;;;11.18;3.20;;;;;;;6.53;92.82;100293.97;5006082;28;20065;-75
2023/01/13 07:58:20;;;;;;;19.55;4.45;;;;;;;6.58;92.29;100307.25;5040170;28;20064;-74
2023/01/13 08:00:45;;;;;;;15.23;2.30;;;;;;;6.60;92.03;100307.09;5022398;28;20041;-76
2023/01/13 08:03:11;;;;;;;18.45;3.35;;;;;;;6.60;92.68;100313.06;5040257;28;20510;-75
2023/01/13 08:05:36;;;;;;;17.35;2.80;;;;;;;6.59;92.69;100313.19;5035430;28;20395;-75
2023/01/13 08:08:02;;;;;;;18.20;4.05;;;;;;;6.62;93.01;100316.31;5022803;28;20524;-74
2023/01/13 08:10:27;;;;;;;29.27;6.95;;;;;;;6.57;93.52;100312.53;5040392;28;20411;-75
2023/01/13 08:15:36;;;;;;;27.73;5.85;;;;;;;6.59;93.85;100316.59;5028987;28;20096;-75
2023/01/13 08:18:02;;;;;;;18.95;4.50;;;;;;;6.71;93.39;100319.00;5045092;28;20034;-74
2023/01/13 08:20:28;;;;;;;17.23;3.67;;;;;;;6.73;93.51;100323.06;5023299;28;20045;-75
2023/01/13 08:22:58;;;;;;;24.67;6.30;;;;;;;6.75;93.85;100330.66;5027376;28;20017;-74
2023/01/13 08:25:25;;;;;;;19.85;4.00;;;;;;;6.83;93.68;100317.84;5043042;28;20052;-75
2023/01/13 08:27:50;;;;;;;13.88;2.78;;;;;;;6.90;93.38;100330.97;5026556;28;20029;-74
2023/01/13 08:30:16;;;;;;;14.60;2.40;;;;;;;6.82;93.94;100318.81;5043621;28;20665;-75
2023/01/13 08:32:46;;;;;;;14.10;2.05;;;;;;;6.80;94.31;100329.25;5042092;28;20041;-74
2023/01/13 08:35:12;;;;;;;10.20;2.00;;;;;;;6.91;93.74;100335.16;5024672;28;20517;-75
2023/01/13 08:37:38;;;;;;;22.13;2.90;;;;;;;7.00;93.46;100334.31;5008245;28;20487;-75
2023/01/13 08:40:04;;;;;;;10.55;2.25;;;;;;;7.02;93.60;100333.19;4983844;28;20077;-74
2023/01/13 08:42:30;;;;;;;17.65;3.33;;;;;;;7.01;94.00;100334.19;4995803;28;20092;-75
2023/01/13 08:44:56;;;;;;;13.75;3.53;;;;;;;7.06;93.82;100349.19;5026390;28;20038;-75
2023/01/13 08:47:22;;;;;;;22.33;2.92;;;;;;;7.16;92.30;100344.00;5043049;28;20029;-74
2023/01/13 08:49:47;;;;;;;20.48;2.50;;;;;;;7.04;92.86;100334.84;5007333;28;20037;-75
2023/01/13 08:52:13;;;;;;;18.30;2.67;;;;;;;7.08;92.78;100342.13;5037218;28;20063;-74
2023/01/13 08:54:39;;;;;;;20.45;3.60;;;;;;;7.20;92.30;100358.22;5025427;28;20057;-75
2023/01/13 08:57:05;;;;;;;19.02;2.30;;;;;;;7.27;91.84;100345.56;5025339;28;20491;-75
2023/01/13 08:59:31;;;;;;;22.65;3.40;;;;;;;7.21;91.76;100344.38;5039961;28;20034;-75
2023/01/13 09:01:56;;;;;;;15.75;2.08;;;;;;;7.24;91.71;100340.72;5044636;28;20112;-75
2023/01/13 09:04:26;;;;;;;13.35;2.20;;;;;;;7.24;91.48;100351.81;5024203;28;20036;-75
2023/01/13 09:06:55;;;;;;;18.05;2.38;;;;;;;7.28;91.58;100355.72;5019931;28;20056;-75
2023/01/13 09:09:22;;;;;;;20.35;2.20;;;;;;;7.27;90.92;100353.28;5040849;28;20032;-73
2023/01/13 09:14:40;;;;;;;21.88;2.63;;;;;;;7.48;90.63;100342.69;5016376;28;20554;-75
2023/01/13 09:17:08;;;;;;;22.30;2.97;;;;;;;7.49;90.09;100347.72;5025442;28;20029;-75
2023/01/13 09:19:35;;;;;;;27.92;6.55;;;;;;;7.53;89.38;100351.63;5017316;28;20022;-75
2023/01/13 09:22:01;;;;;;;22.65;2.85;;;;;;;7.48;89.80;100346.09;5018583;28;20034;-75
2023/01/13 09:24:27;;;;;;;25.70;5.07;;;;;;;7.39;89.82;100349.56;5026292;28;20030;-75
2023/01/13 09:26:53;;;;;;;30.90;3.10;;;;;;;7.37;89.97;100346.31;5024300;28;20034;-74
2023/01/13 09:29:18;;;;;;;22.00;2.38;;;;;;;7.44;89.90;100349.94;5025625;28;20104;-73
2023/01/13 09:31:45;;;;;;;30.40;3.58;;;;;;;7.44;89.47;100359.44;5025681;28;20557;-75
2023/01/13 09:37:00;;;;;;;20.38;3.45;;;;;;;7.46;89.00;100354.94;5042833;28;20045;-75
2023/01/13 09:39:26;;;;;;;17.90;2.72;;;;;;;7.50;88.59;100364.84;5025939;28;20086;-75
2023/01/13 09:45:07;;;;;;;19.23;1.95;;;;;;;7.54;87.87;100371.31;5039581;28;20071;-75
2023/01/13 09:47:58;;;;;;;25.45;3.10;;;;;;;7.51;87.93;100373.38;5040864;28;20041;-75
2023/01/13 09:50:47;;;;;;;24.20;3.40;;;;;;;7.66;87.63;100378.84;4996208;28;20052;-75
2023/01/13 09:53:21;;;;;;;18.52;4.10;;;;;;;7.59;87.96;100392.34;5017348;28;20049;-74
2023/01/13 09:55:47;;;;;;;19.63;2.53;;;;;;;7.59;88.32;100389.75;5026193;28;20033;-75
2023/01/13 09:58:18;;;;;;;25.80;2.63;;;;;;;7.54;88.32;100393.72;5021491;28;20042;-75
2023/01/13 10:00:55;;;;;;;21.60;3.38;;;;;;;7.59;87.94;100397.50;5038127;28;20041;-75
2023/01/13 10:03:29;;;;;;;20.70;2.22;;;;;;;7.69;87.38;100399.22;5024480;28;20475;-75
2023/01/13 10:06:23;;;;;;;22.98;3.03;;;;;;;7.82;86.78;100396.22;5025061;28;20042;-75
2023/01/13 10:08:49;;;;;;;24.73;3.70;;;;;;;7.82;86.98;100402.22;5026574;28;20060;-75
2023/01/13 10:14:15;;;;;;;15.95;2.25;;;;;;;7.88;86.53;100401.63;5021315;28;20072;-74
2023/01/13 10:17:20;;;;;;;20.95;3.55;;;;;;;7.95;86.40;100399.28;5005724;28;20077;-75
2023/01/13 10:24:00;;;;;;;22.27;2.35;;;;;;;7.95;85.34;100392.34;5046267;28;20115;-74
2023/01/13 10:30:35;;;;;;;26.05;3.33;;;;;;;7.99;85.90;100392.84;5045100;28;20044;-75
2023/01/13 10:33:24;;;;;;;16.00;2.10;;;;;;;8.12;85.11;100397.66;5044208;28;20486;-75
2023/01/13 10:36:16;;;;;;;19.65;2.63;;;;;;;8.00;84.61;100404.78;5044947;28;20044;-75
2023/01/13 10:38:51;;;;;;;22.90;2.38;;;;;;;8.09;84.31;100387.59;5045388;28;20029;-75
2023/01/13 10:41:26;;;;;;;17.27;2.47;;;;;;;8.16;84.58;100398.97;5027211;28;20092;-75
2023/01/13 10:43:51;;;;;;;33.00;3.75;;;;;;;8.26;83.76;100401.44;5041031;28;20029;-75
2023/01/13 10:54:00;;;;;;;12.60;1.92;;;;;;;8.57;81.96;100399.28;5036878;28;20067;-75
2023/01/13 10:56:29;;;;;;;26.27;2.90;;;;;;;8.59;81.93;100394.75;5039818;28;20053;-75
2023/01/13 10:59:27;;;;;;;17.08;2.00;;;;;;;8.56;80.98;100410.56;5028870;28;20487;-74
2023/01/13 11:02:22;;;;;;;29.80;3.15;;;;;;;8.55;81.34;100398.59;5022065;28;20051;-75
2023/01/13 11:04:54;;;;;;;19.05;2.03;;;;;;;8.61;81.17;100387.66;4995024;28;20120;-75
2023/01/13 11:07:23;;;;;;;27.08;3.97;;;;;;;8.55;80.99;100383.09;5032958;28;20156;-74
2023/01/13 11:10:18;;;;;;;24.38;2.58;;;;;;;8.48;80.22;100398.41;5044765;28;20045;-74
2023/01/13 11:13:10;;;;;;;20.70;3.20;;;;;;;8.51;80.79;100385.19;5033578;28;20052;-74
2023/01/13 11:15:38;;;;;;;24.42;2.53;;;;;;;8.42;80.03;100399.03;5024488;28;20037;-74
2023/01/13 11:18:23;;;;;;;24.52;2.30;;;;;;;8.37;80.66;100401.22;5032637;28;20033;-74
2023/01/13 11:20:50;;;;;;;13.35;2.20;;;;;;;8.46;80.93;100405.50;5040085;28;20055;-75
2023/01/13 11:23:36;;;;;;;21.55;2.55;;;;;;;8.33;81.33;100412.81;5043895;28;20031;-75
2023/01/13 11:26:13;;;;;;;23.42;3.05;;;;;;;8.26;81.42;100409.19;5041240;28;21898;-76
2023/01/13 11:28:42;;;;;;;30.85;2.75;;;;;;;8.28;82.62;100426.16;5029914;28;20029;-75
2023/01/13 11:31:28;;;;;;;23.77;3.03;;;;;;;8.32;81.55;100404.22;5043283;28;20048;-75
2023/01/13 11:34:05;;;;;;;29.70;2.33;;;;;;;8.46;81.14;100421.00;5043520;28;20043;-75
2023/01/13 11:36:41;;;;;;;18.63;2.13;;;;;;;8.52;81.27;100417.00;5035905;28;20045;-75
2023/01/13 11:39:43;;;;;;;29.20;3.08;;;;;;;8.53;81.93;100421.19;5037479;28;20052;-75
2023/01/13 11:42:45;;;;;;;23.55;2.60;;;;;;;8.54;82.44;100422.84;5035716;28;20036;-75
2023/01/13 11:45:25;;;;;;;19.17;2.53;;;;;;;8.54;81.11;100425.41;5025312;28;20514;-75
2023/01/13 11:47:57;;;;;;;23.30;3.53;;;;;;;8.55;81.07;100421.84;5049266;28;20167;-75
2023/01/13 11:50:41;;;;;;;25.88;2.20;;;;;;;8.59;81.14;100420.59;5047050;28;20124;-75
2023/01/13 11:53:52;;;;;;;21.40;3.65;;;;;;;8.63;82.77;100427.09;5048390;28;20036;-75
2023/01/13 11:56:53;;;;;;;17.13;2.45;;;;;;;8.55;82.14;100420.09;5028481;28;20254;-75
2023/01/13 11:59:40;;;;;;;21.95;3.30;;;;;;;8.60;82.42;100429.97;5038791;28;20502;-75
2023/01/13 12:02:19;;;;;;;28.60;3.15;;;;;;;8.49;83.30;100435.38;5022432;28;20033;-74
2023/01/13 12:05:58;;;;;;;24.48;2.60;;;;;;;8.61;83.03;100433.34;5017082;28;20607;-76
2023/01/13 12:09:35;;;;;;;19.80;3.58;;;;;;;8.70;82.83;100448.78;5040065;28;20039;-74
2023/01/13 12:12:38;;;;;;;30.30;3.53;;;;;;;8.58;83.48;100455.16;5005272;28;20095;-74
2023/01/13 12:15:34;;;;;;;20.52;2.40;;;;;;;8.41;88.60;100464.53;5002007;28;20048;-75
2023/01/13 12:18:12;;;;;;;15.38;2.22;;;;;;;8.31;88.59;100474.97;5044848;28;20090;-74
2023/01/13 12:21:02;;;;;;;17.83;2.67;;;;;;;8.25;90.18;100467.81;5020410;28;20041;-74
2023/01/13 12:24:03;;;;;;;18.45;2.60;;;;;;;8.34;89.73;100473.84;5045032;28;20040;-75
2023/01/13 12:26:41;;;;;;;26.83;2.80;;;;;;;8.37;88.67;100491.63;5007426;28;20136;-74
2023/01/13 12:29:17;;;;;;;22.08;2.80;;;;;;;8.36;88.77;100495.16;5030326;28;20028;-74
2023/01/13 12:31:48;;;;;;;22.38;3.28;;;;;;;8.31;88.94;100490.47;5037777;28;20034;-74
2023/01/13 12:34:38;;;;;;;19.10;2.20;;;;;;;8.19;89.74;100500.22;5044431;28;20074;-75
2023/01/13 12:37:13;;;;;;;17.05;2.30;;;;;;;8.27;90.30;100511.56;5028525;28;20128;-74
2023/01/13 12:40:12;;;;;;;18.25;3.33;;;;;;;8.13;89.34;100502.56;5030644;28;20060;-74
2023/01/13 12:45:32;;;;;;;13.60;2.05;;;;;;;8.02;90.80;100511.31;5044481;28;20033;-75
2023/01/13 12:47:59;;;;;;;11.90;2.00;;;;;;;8.06;90.54;100507.50;5049845;28;20083;-74
2023/01/13 12:50:25;;;;;;;22.08;2.85;;;;;;;8.08;90.89;100522.84;5043655;28;20037;-75
2023/01/13 12:52:55;;;;;;;24.92;2.72;;;;;;;7.95;91.21;100518.06;5045843;28;20037;-74